Time;durP1;ratioP1;P1;durP2;ratioP2;P2;SDS_P1;SDS_P2;PMS_P1;PMS_P2;Temp;Humidity;BMP_temperature;BMP_pressure;BME280_temperature;BME280_humidity;BME280_pressure;Samples;Min_cycle;Max_cycle;Signal;HPM_P1;HPM_P2
2021/06/01 00:02:21;;;;;;;22.92;15.43;;;8.10;99.90;;;;;;5033765;28;20063;-64
2021/06/01 00:04:47;;;;;;;21.20;14.82;;;8.00;99.90;;;;;;5035346;28;20032;-64
2021/06/01 00:07:13;;;;;;;21.52;14.75;;;8.10;99.90;;;;;;5034488;28;20356;-64
2021/06/01 00:09:39;;;;;;;30.42;15.88;;;8.20;99.90;;;;;;5034163;28;20244;-63
2021/06/01 00:12:05;;;;;;;21.23;13.88;;;8.00;99.90;;;;;;5035416;28;20036;-64
2021/06/01 00:14:31;;;;;;;20.45;13.93;;;7.90;99.90;;;;;;5033945;28;20484;-64
2021/06/01 00:16:57;;;;;;;20.48;14.43;;;7.90;99.90;;;;;;5016412;28;20485;-64
2021/06/01 00:19:23;;;;;;;19.20;14.43;;;7.90;99.90;;;;;;5035388;28;20406;-64
2021/06/01 00:21:49;;;;;;;20.45;13.75;;;7.80;99.90;;;;;;5035130;28;20092;-63
2021/06/01 00:24:15;;;;;;;22.10;14.02;;;7.80;99.90;;;;;;5035705;28;20611;-64
2021/06/01 00:26:42;;;;;;;19.38;13.65;;;7.70;99.90;;;;;;5017602;28;20049;-64
2021/06/01 00:29:09;;;;;;;21.50;15.27;;;7.90;99.90;;;;;;5030241;28;20078;-64
2021/06/01 00:31:35;;;;;;;18.00;13.95;;;7.80;99.90;;;;;;5035952;28;20025;-63
2021/06/01 00:34:02;;;;;;;23.17;15.38;;;7.80;99.90;;;;;;5032073;28;20037;-63
2021/06/01 00:36:28;;;;;;;21.23;15.00;;;7.80;99.90;;;;;;5017313;28;20552;-64
2021/06/01 00:38:54;;;;;;;18.92;14.20;;;7.70;99.90;;;;;;5033380;28;20046;-63
2021/06/01 00:41:20;;;;;;;21.48;15.70;;;7.70;99.90;;;;;;5035131;28;20065;-64
2021/06/01 00:43:46;;;;;;;27.55;18.20;;;7.60;99.90;;;;;;5034835;28;20029;-63
2021/06/01 00:46:12;;;;;;;36.90;17.35;;;7.70;99.90;;;;;;5032490;28;20041;-64
2021/06/01 00:48:38;;;;;;;45.83;18.17;;;7.70;99.90;;;;;;5018029;28;20480;-63
2021/06/01 00:51:05;;;;;;;28.02;19.98;;;7.70;99.90;;;;;;5035164;28;20028;-63
2021/06/01 00:53:31;;;;;;;38.25;23.50;;;7.70;99.90;;;;;;5031428;28;20023;-63
2021/06/01 00:55:57;;;;;;;34.10;21.65;;;7.70;99.90;;;;;;5033551;28;20029;-63
2021/06/01 00:58:24;;;;;;;30.13;21.20;;;7.80;99.90;;;;;;5033977;28;20054;-64
2021/06/01 01:03:22;;;;;;;31.90;19.30;;;7.90;99.90;;;;;;5034145;28;20029;-64
2021/06/01 01:05:50;;;;;;;33.63;18.50;;;8.00;99.90;;;;;;5029006;28;20095;-63
2021/06/01 01:11:27;;;;;;;24.40;17.42;;;7.90;99.90;;;;;;5032292;28;20574;-63
2021/06/01 01:13:58;;;;;;;25.77;18.40;;;7.80;99.90;;;;;;5030678;28;20511;-63
2021/06/01 01:16:27;;;;;;;29.52;18.88;;;7.90;99.90;;;;;;5036288;28;20163;-63
2021/06/01 01:19:14;;;;;;;30.75;19.40;;;7.80;99.90;;;;;;5038807;28;20666;-63
2021/06/01 01:21:50;;;;;;;34.60;19.33;;;7.80;99.90;;;;;;5035763;28;20404;-63
2021/06/01 01:24:44;;;;;;;28.98;18.67;;;7.80;99.90;;;;;;5039997;28;20049;-63
2021/06/01 01:27:52;;;;;;;25.95;17.65;;;7.80;99.90;;;;;;5036694;28;20067;-63
2021/06/01 01:30:19;;;;;;;24.05;17.45;;;7.60;99.90;;;;;;5039096;28;20107;-63
2021/06/01 01:33:01;;;;;;;26.50;18.08;;;7.40;99.90;;;;;;5036685;28;20082;-63
2021/06/01 01:35:32;;;;;;;23.55;16.50;;;7.40;99.90;;;;;;5037339;28;20081;-64
2021/06/01 01:38:00;;;;;;;21.23;15.55;;;7.30;99.90;;;;;;5037797;28;20110;-63
2021/06/01 01:40:30;;;;;;;26.58;17.52;;;7.20;99.90;;;;;;5039219;28;20488;-63
2021/06/01 01:43:07;;;;;;;36.85;18.70;;;7.30;99.90;;;;;;5034571;28;20071;-63
2021/06/01 01:45:35;;;;;;;34.47;16.30;;;7.30;99.90;;;;;;5038357;28;20044;-63
2021/06/01 01:51:11;;;;;;;21.90;14.73;;;7.40;99.90;;;;;;5036997;28;20171;-63
2021/06/01 01:53:58;;;;;;;29.55;15.50;;;7.50;99.90;;;;;;5038197;28;20361;-63
2021/06/01 01:56:29;;;;;;;24.60;16.10;;;7.30;99.90;;;;;;5034774;28;20444;-63
2021/06/01 01:58:56;;;;;;;28.92;16.05;;;7.10;99.90;;;;;;5035086;28;20033;-63
2021/06/01 02:01:23;;;;;;;30.98;16.15;;;7.10;99.90;;;;;;5035448;28;20029;-64
2021/06/01 02:03:51;;;;;;;23.90;14.98;;;7.10;99.90;;;;;;5037758;28;20025;-63
2021/06/01 02:06:17;;;;;;;33.58;15.93;;;7.10;99.90;;;;;;5035035;28;20048;-63
2021/06/01 02:08:43;;;;;;;28.15;14.85;;;7.30;99.90;;;;;;5037565;28;20029;-63
2021/06/01 02:11:10;;;;;;;23.45;15.35;;;7.10;99.90;;;;;;5019741;28;20029;-63
2021/06/01 02:13:49;;;;;;;24.65;14.82;;;7.20;99.90;;;;;;5035771;28;20264;-64
2021/06/01 02:16:15;;;;;;;24.75;14.50;;;7.20;99.90;;;;;;5025264;28;20535;-63
2021/06/01 02:18:42;;;;;;;17.88;13.00;;;7.30;99.90;;;;;;5038448;28;20338;-63
2021/06/01 02:21:32;;;;;;;21.35;13.70;;;7.30;99.90;;;;;;5034865;28;20093;-63
2021/06/01 02:24:04;;;;;;;17.98;13.23;;;7.20;99.90;;;;;;5023646;28;20045;-63
2021/06/01 02:26:34;;;;;;;17.50;11.93;;;7.30;99.90;;;;;;5035960;28;20165;-63
2021/06/01 02:29:06;;;;;;;;;;;7.30;99.90;;;;;;5037936;28;20035;-63
2021/06/01 02:31:38;;;;;;;37.75;15.55;;;7.30;99.90;;;;;;5038045;28;19917;-63
2021/06/01 02:34:07;;;;;;;31.23;15.75;;;7.20;99.90;;;;;;5038325;28;20140;-63
2021/06/01 02:36:34;;;;;;;28.60;15.60;;;7.20;99.90;;;;;;5033742;28;20448;-63
2021/06/01 02:39:01;;;;;;;31.77;16.02;;;7.10;99.90;;;;;;5037222;28;20128;-63
2021/06/01 02:41:27;;;;;;;39.67;15.52;;;7.20;99.90;;;;;;5037418;28;20061;-63
2021/06/01 02:43:53;;;;;;;31.15;16.15;;;7.20;99.90;;;;;;5034954;28;20056;-63
2021/06/01 02:46:19;;;;;;;37.05;17.02;;;7.20;99.90;;;;;;5036027;28;20041;-63
2021/06/01 02:48:47;;;;;;;55.45;18.10;;;7.10;99.90;;;;;;5037158;28;20029;-63
2021/06/01 02:51:17;;;;;;;57.05;19.92;;;7.10;99.90;;;;;;5037459;28;20075;-63
2021/06/01 02:53:48;;;;;;;34.00;15.80;;;7.10;99.90;;;;;;5035138;28;20068;-64
2021/06/01 02:56:15;;;;;;;40.67;17.75;;;7.20;99.90;;;;;;5034888;28;20522;-63
2021/06/01 02:58:42;;;;;;;24.58;15.93;;;7.20;99.90;;;;;;5037664;28;20029;-64
2021/06/01 03:01:12;;;;;;;26.60;14.00;;;7.30;99.90;;;;;;5031190;28;20295;-63
2021/06/01 03:03:43;;;;;;;19.35;13.38;;;7.30;99.90;;;;;;5036571;28;20021;-63
2021/06/01 03:06:09;;;;;;;34.80;16.05;;;7.40;99.90;;;;;;5036767;28;20216;-66
2021/06/01 03:08:35;;;;;;;23.40;14.00;;;7.40;99.90;;;;;;5036199;28;20384;-63
2021/06/01 03:11:03;;;;;;;19.70;14.75;;;7.40;99.90;;;;;;5036310;28;20029;-63
2021/06/01 03:13:29;;;;;;;23.30;14.63;;;7.30;99.90;;;;;;5019159;28;20025;-63
2021/06/01 03:15:56;;;;;;;19.85;13.30;;;7.30;99.90;;;;;;5034994;28;20503;-63
2021/06/01 03:18:22;;;;;;;20.55;14.55;;;7.30;99.90;;;;;;5037067;28;20048;-63
2021/06/01 03:20:49;;;;;;;25.23;15.05;;;7.30;99.90;;;;;;5034230;28;20024;-64
2021/06/01 03:23:15;;;;;;;23.75;13.60;;;7.20;99.90;;;;;;5034389;28;20052;-63
2021/06/01 03:25:41;;;;;;;21.70;13.80;;;7.20;99.90;;;;;;5033457;28;20036;-63
2021/06/01 03:28:07;;;;;;;28.30;14.23;;;7.20;99.90;;;;;;5035685;28;20506;-64
2021/06/01 03:30:34;;;;;;;26.90;14.27;;;7.30;99.90;;;;;;5030495;28;20033;-64
2021/06/01 03:33:01;;;;;;;28.20;13.50;;;7.30;99.90;;;;;;5034427;28;20516;-64
2021/06/01 03:35:26;;;;;;;20.35;13.88;;;7.30;99.90;;;;;;5035597;28;20040;-64
2021/06/01 03:37:53;;;;;;;18.83;13.50;;;7.20;99.90;;;;;;5030828;28;20025;-64
2021/06/01 03:40:19;;;;;;;21.20;13.18;;;7.30;99.90;;;;;;5034807;28;20424;-63
2021/06/01 03:42:45;;;;;;;19.67;13.52;;;7.30;99.90;;;;;;5033370;28;20036;-64
2021/06/01 03:45:12;;;;;;;21.67;14.82;;;7.30;99.90;;;;;;5033027;28;20029;-64
2021/06/01 03:47:40;;;;;;;19.15;14.00;;;7.30;99.90;;;;;;5015369;28;20086;-64
2021/06/01 03:50:06;;;;;;;18.65;13.95;;;7.40;99.90;;;;;;5028841;28;20037;-64
2021/06/01 03:52:32;;;;;;;17.38;14.00;;;7.50;99.90;;;;;;5035079;28;20431;-65
2021/06/01 03:54:58;;;;;;;17.45;13.20;;;7.60;99.90;;;;;;5011429;28;20395;-64
2021/06/01 03:57:25;;;;;;;20.35;14.18;;;7.60;99.90;;;;;;5034132;28;20657;-64
2021/06/01 03:59:51;;;;;;;19.20;13.85;;;7.60;99.90;;;;;;5025947;28;20494;-63
2021/06/01 04:02:16;;;;;;;18.48;14.25;;;7.60;99.90;;;;;;5029686;28;20120;-72
2021/06/01 04:04:42;;;;;;;35.78;15.55;;;7.60;99.90;;;;;;5026177;28;20033;-72
2021/06/01 04:07:11;;;;;;;27.70;13.63;;;7.70;99.90;;;;;;5027302;28;20073;-72
2021/06/01 04:09:37;;;;;;;24.52;14.57;;;7.70;99.90;;;;;;5035662;28;20036;-72
2021/06/01 04:12:04;;;;;;;32.25;14.52;;;7.90;99.90;;;;;;5032095;28;20374;-71
2021/06/01 04:14:30;;;;;;;31.13;14.25;;;8.00;99.90;;;;;;5033679;28;20421;-72
2021/06/01 04:16:56;;;;;;;23.95;14.23;;;7.90;99.90;;;;;;5033187;28;20029;-72
2021/06/01 04:19:22;;;;;;;30.08;16.13;;;8.00;99.90;;;;;;5032567;28;20396;-72
2021/06/01 04:21:48;;;;;;;25.42;14.13;;;8.00;99.90;;;;;;5027957;28;20037;-72
2021/06/01 04:24:13;;;;;;;40.15;14.77;;;8.20;99.90;;;;;;5029876;28;20060;-72
2021/06/01 04:26:40;;;;;;;18.85;13.70;;;8.30;99.90;;;;;;5033358;28;20704;-71
2021/06/01 04:29:05;;;;;;;72.57;17.13;;;8.40;99.90;;;;;;5034797;28;20477;-71
2021/06/01 04:31:31;;;;;;;34.08;15.95;;;8.40;99.90;;;;;;5035354;28;20029;-72
2021/06/01 04:33:57;;;;;;;36.80;15.32;;;8.50;99.90;;;;;;5031557;28;20028;-72
2021/06/01 04:36:25;;;;;;;46.83;15.60;;;8.40;99.90;;;;;;5032012;28;20025;-72
2021/06/01 04:38:51;;;;;;;33.38;15.60;;;8.60;99.90;;;;;;5014391;28;20506;-72
2021/06/01 04:41:18;;;;;;;32.88;16.52;;;8.60;99.90;;;;;;5035767;28;20527;-71
2021/06/01 04:43:44;;;;;;;25.60;15.02;;;8.80;99.90;;;;;;5030388;28;20044;-72
2021/06/01 04:46:10;;;;;;;19.23;14.80;;;8.90;99.90;;;;;;5032056;28;20128;-71
2021/06/01 04:48:36;;;;;;;39.22;16.30;;;9.00;99.90;;;;;;5034767;28;20119;-72
2021/06/01 04:51:02;;;;;;;20.30;14.00;;;9.10;99.90;;;;;;5031882;28;20833;-71
2021/06/01 04:53:28;;;;;;;28.00;16.10;;;9.20;99.90;;;;;;5008432;28;20570;-71
2021/06/01 04:55:54;;;;;;;22.15;14.98;;;9.40;99.90;;;;;;5030517;28;20032;-71
2021/06/01 04:58:20;;;;;;;25.05;15.60;;;9.50;99.90;;;;;;5029733;28;20060;-71
2021/06/01 05:00:45;;;;;;;17.90;13.70;;;9.60;99.90;;;;;;5029435;28;20127;-71
2021/06/01 05:03:11;;;;;;;20.95;14.15;;;9.70;99.90;;;;;;5033775;28;20031;-71
2021/06/01 05:05:37;;;;;;;24.65;14.23;;;9.80;99.90;;;;;;5032987;28;20037;-71
2021/06/01 05:08:03;;;;;;;21.52;16.45;;;9.90;99.90;;;;;;5035472;28;20393;-71
2021/06/01 05:10:29;;;;;;;19.58;14.77;;;10.10;99.90;;;;;;5033418;28;20637;-71
2021/06/01 05:12:55;;;;;;;19.88;14.80;;;10.20;99.90;;;;;;5034721;28;20495;-71
2021/06/01 05:15:21;;;;;;;23.55;15.95;;;10.20;99.90;;;;;;5034402;28;20061;-71
2021/06/01 05:17:47;;;;;;;20.58;15.32;;;10.30;99.90;;;;;;5034047;28;20040;-71
2021/06/01 05:20:13;;;;;;;16.77;13.35;;;10.40;99.90;;;;;;5035448;28;20507;-71
2021/06/01 05:22:39;;;;;;;23.00;16.60;;;10.50;99.90;;;;;;5018601;28;20037;-71
2021/06/01 05:25:05;;;;;;;20.70;15.80;;;10.70;99.90;;;;;;5034436;28;20564;-71
2021/06/01 05:27:31;;;;;;;22.33;17.75;;;10.80;99.90;;;;;;5035172;28;20450;-70
2021/06/01 05:30:01;;;;;;;23.92;17.60;;;11.00;99.90;;;;;;5036210;28;20160;-71
2021/06/01 05:35:19;;;;;;;28.80;17.67;;;11.30;99.90;;;;;;5034548;28;20195;-72
2021/06/01 05:37:45;;;;;;;23.65;17.42;;;11.30;99.90;;;;;;5031832;28;20063;-71
2021/06/01 05:40:13;;;;;;;22.35;16.50;;;11.50;99.90;;;;;;5035865;28;20024;-71
2021/06/01 05:42:39;;;;;;;24.58;18.75;;;11.60;99.90;;;;;;5035048;28;20040;-72
2021/06/01 05:45:06;;;;;;;26.95;19.63;;;11.70;99.90;;;;;;5035120;28;20056;-72
2021/06/01 05:47:32;;;;;;;28.60;19.23;;;11.80;99.90;;;;;;5034537;28;20487;-71
2021/06/01 05:49:58;;;;;;;30.40;19.65;;;11.90;99.90;;;;;;5035793;28;20028;-71
2021/06/01 05:52:24;;;;;;;26.92;17.20;;;12.00;99.90;;;;;;5035453;28;20041;-71
2021/06/01 05:54:50;;;;;;;35.58;20.08;;;12.10;99.90;;;;;;5033205;28;20446;-72
2021/06/01 05:57:15;;;;;;;29.58;19.17;;;12.10;99.90;;;;;;5010397;28;20021;-71
2021/06/01 05:59:41;;;;;;;31.67;20.80;;;12.20;99.90;;;;;;5015145;28;20017;-71
2021/06/01 06:02:07;;;;;;;29.88;20.45;;;12.20;99.90;;;;;;5017350;28;20547;-71
2021/06/01 06:04:33;;;;;;;31.20;21.35;;;12.30;99.90;;;;;;5038520;28;20044;-72
2021/06/01 06:06:59;;;;;;;30.83;21.58;;;12.40;99.90;;;;;;5019735;28;20127;-71
2021/06/01 06:09:25;;;;;;;28.38;19.45;;;12.50;99.90;;;;;;5038933;28;20127;-71
2021/06/01 06:11:51;;;;;;;29.85;21.65;;;12.60;99.90;;;;;;5038582;28;20492;-71
2021/06/01 06:14:17;;;;;;;28.23;21.17;;;12.70;99.90;;;;;;5038702;28;20511;-71
2021/06/01 06:16:54;;;;;;;26.55;20.38;;;12.90;99.90;;;;;;5037294;28;20139;-72
2021/06/01 06:19:20;;;;;;;28.92;19.30;;;13.20;99.90;;;;;;5038340;28;20076;-72
2021/06/01 06:21:45;;;;;;;55.17;27.90;;;13.50;99.90;;;;;;5037208;28;20132;-72
2021/06/01 06:24:11;;;;;;;25.92;19.33;;;13.60;99.90;;;;;;5019359;28;20091;-71
2021/06/01 06:26:37;;;;;;;25.05;18.20;;;13.70;99.90;;;;;;5036986;28;20048;-69
2021/06/01 06:29:03;;;;;;;44.83;23.55;;;13.90;99.90;;;;;;5033621;28;20183;-72
2021/06/01 06:31:29;;;;;;;21.33;16.40;;;14.30;99.90;;;;;;5037718;28;20037;-71
2021/06/01 06:33:56;;;;;;;28.05;19.27;;;14.70;99.90;;;;;;5021047;28;20036;-71
2021/06/01 06:36:22;;;;;;;20.70;14.27;;;15.10;99.90;;;;;;5038482;28;20369;-71
2021/06/01 06:38:48;;;;;;;17.35;13.13;;;15.40;99.90;;;;;;5038761;28;20144;-72
2021/06/01 06:41:15;;;;;;;19.60;12.52;;;15.70;99.90;;;;;;5038367;28;20033;-72
2021/06/01 06:43:49;;;;;;;18.35;12.80;;;15.90;99.90;;;;;;5036659;28;20551;-71
2021/06/01 06:46:25;;;;;;;18.90;13.68;;;16.10;99.90;;;;;;5037938;28;20970;-72
2021/06/01 06:48:51;;;;;;;22.17;15.10;;;16.10;99.90;;;;;;5038380;28;20234;-72
2021/06/01 06:51:18;;;;;;;19.70;13.93;;;15.90;99.90;;;;;;5037382;28;20520;-72
2021/06/01 06:53:52;;;;;;;18.88;13.02;;;15.80;99.90;;;;;;5034153;28;20517;-72
2021/06/01 06:56:29;;;;;;;19.10;13.02;;;15.90;99.90;;;;;;5037507;28;20067;-71
2021/06/01 06:58:57;;;;;;;18.00;12.73;;;15.70;99.90;;;;;;5037744;28;20549;-72
2021/06/01 07:01:23;;;;;;;18.85;12.52;;;15.50;99.90;;;;;;5037552;28;20511;-72
2021/06/01 07:03:49;;;;;;;19.90;14.20;;;15.40;99.90;;;;;;5037444;28;20029;-71
2021/06/01 07:06:16;;;;;;;18.92;15.13;;;15.30;99.90;;;;;;5036950;28;20035;-71
2021/06/01 07:08:42;;;;;;;19.33;15.10;;;15.10;99.90;;;;;;5019424;28;20041;-71
2021/06/01 07:11:09;;;;;;;18.65;14.38;;;15.10;99.90;;;;;;5036969;28;20264;-71
2021/06/01 07:13:48;;;;;;;20.77;14.70;;;15.10;99.90;;;;;;5038380;28;20032;-71
2021/06/01 07:16:14;;;;;;;19.08;14.98;;;15.30;99.90;;;;;;5038121;28;20699;-71
2021/06/01 07:18:41;;;;;;;19.60;15.38;;;15.60;99.90;;;;;;5034171;28;20025;-71
2021/06/01 07:21:09;;;;;;;19.58;15.80;;;15.80;99.90;;;;;;5038154;28;20120;-71
2021/06/01 07:23:35;;;;;;;20.35;15.40;;;16.00;99.90;;;;;;5034476;28;20052;-72
2021/06/01 07:26:01;;;;;;;21.63;16.27;;;16.40;99.90;;;;;;5034130;28;20039;-71
2021/06/01 07:28:27;;;;;;;18.70;14.45;;;16.60;99.90;;;;;;5036504;28;20054;-71
2021/06/01 07:30:53;;;;;;;17.23;13.70;;;16.80;99.90;;;;;;5036403;28;20515;-71
2021/06/01 07:33:19;;;;;;;13.13;9.88;;;17.30;99.90;;;;;;5037288;28;20029;-71
2021/06/01 07:35:45;;;;;;;15.27;10.00;;;17.80;99.90;;;;;;5036521;28;20040;-71
2021/06/01 07:38:12;;;;;;;12.73;9.25;;;17.90;99.90;;;;;;5019969;28;20064;-72
2021/06/01 07:40:42;;;;;;;10.55;7.65;;;18.10;99.90;;;;;;5035639;28;20388;-72
2021/06/01 07:43:08;;;;;;;11.27;8.48;;;18.30;99.90;;;;;;5036554;28;20087;-72
2021/06/01 07:45:34;;;;;;;9.32;6.57;;;18.50;99.90;;;;;;5035542;28;20044;-72
2021/06/01 07:48:00;;;;;;;7.63;5.55;;;19.00;99.90;;;;;;5037869;28;20026;-73
2021/06/01 07:50:26;;;;;;;8.95;5.20;;;19.40;99.90;;;;;;5035664;28;20021;-73
2021/06/01 07:52:52;;;;;;;7.55;5.22;;;19.60;99.90;;;;;;5014715;28;20033;-73
2021/06/01 07:55:18;;;;;;;10.32;5.47;;;19.70;99.90;;;;;;5036401;28;20021;-73
2021/06/01 07:57:44;;;;;;;5.70;4.45;;;20.00;99.90;;;;;;5036412;28;20048;-73
2021/06/01 08:00:11;;;;;;;6.38;4.40;;;20.10;99.90;;;;;;5037984;28;20071;-73
2021/06/01 08:02:37;;;;;;;11.57;6.18;;;20.30;99.90;;;;;;5037167;28;20143;-73
2021/06/01 08:05:04;;;;;;;6.88;4.53;;;19.90;99.90;;;;;;5017853;28;20444;-73
2021/06/01 08:07:30;;;;;;;9.95;4.15;;;20.00;99.90;;;;;;5035770;28;20447;-73
2021/06/01 08:09:56;;;;;;;11.30;5.70;;;20.10;99.90;;;;;;5036041;28;20032;-74
2021/06/01 08:12:22;;;;;;;8.30;5.30;;;20.10;99.90;;;;;;5036005;28;20303;-73
2021/06/01 08:14:51;;;;;;;8.48;4.80;;;19.90;99.90;;;;;;5037566;28;20025;-73
2021/06/01 08:17:16;;;;;;;10.38;6.72;;;20.20;99.90;;;;;;5018971;28;20024;-73
2021/06/01 08:19:44;;;;;;;7.30;4.97;;;20.00;99.90;;;;;;5035724;28;20033;-73
2021/06/01 08:24:48;;;;;;;6.78;4.88;;;20.20;99.90;;;;;;5035302;28;20110;-73
2021/06/01 08:27:14;;;;;;;5.50;4.82;;;20.30;99.90;;;;;;5034135;28;20523;-73
2021/06/01 08:29:40;;;;;;;6.15;4.53;;;20.60;99.90;;;;;;5033747;28;20040;-74
2021/06/01 08:32:07;;;;;;;5.90;4.63;;;20.70;99.90;;;;;;5031933;28;20036;-74
2021/06/01 08:34:32;;;;;;;5.15;3.92;;;20.60;99.90;;;;;;5035262;28;20029;-73
2021/06/01 08:36:59;;;;;;;6.57;3.72;;;20.70;99.90;;;;;;5035569;28;20435;-73
2021/06/01 08:39:28;;;;;;;8.65;3.40;;;21.10;99.90;;;;;;5036542;28;20021;-74
2021/06/01 08:41:56;;;;;;;5.13;3.63;;;21.10;99.90;;;;;;5034312;28;20044;-74
2021/06/01 08:44:23;;;;;;;4.32;3.15;;;21.20;99.90;;;;;;5034428;28;20435;-73
2021/06/01 08:46:51;;;;;;;4.47;3.20;;;21.30;99.90;;;;;;5018857;28;20065;-74
2021/06/01 08:49:18;;;;;;;5.93;3.58;;;21.40;99.90;;;;;;5036339;28;20017;-73
2021/06/01 08:51:44;;;;;;;4.20;2.65;;;21.30;99.90;;;;;;5036388;28;20017;-74
2021/06/01 08:54:11;;;;;;;4.70;3.20;;;21.40;99.90;;;;;;5034188;28;20418;-75
2021/06/01 08:56:37;;;;;;;7.32;3.75;;;21.60;99.90;;;;;;5036639;28;20025;-74
2021/06/01 08:59:03;;;;;;;7.60;4.47;;;21.60;99.90;;;;;;5034902;28;20025;-74
2021/06/01 09:01:30;;;;;;;5.78;4.15;;;21.80;99.90;;;;;;5035596;28;20060;-74
2021/06/01 09:03:59;;;;;;;7.00;3.85;;;21.80;99.90;;;;;;5034408;28;20063;-74
2021/06/01 09:22:39;;;;;;;5.75;4.00;;;21.70;99.90;;;;;;5036381;28;20102;-74
2021/06/01 09:25:16;;;;;;;5.25;3.75;;;21.40;99.90;;;;;;5035531;28;20087;-74
2021/06/01 09:27:46;;;;;;;5.15;3.53;;;21.20;99.90;;;;;;5036506;28;20056;-73
2021/06/01 09:30:35;;;;;;;5.22;3.80;;;21.00;99.90;;;;;;5035745;28;20025;-73
2021/06/01 09:33:03;;;;;;;6.25;3.75;;;21.20;99.90;;;;;;5022228;28;20060;-74
2021/06/01 09:35:48;;;;;;;9.55;3.63;;;21.20;99.90;;;;;;5036791;28;20129;-73
2021/06/01 09:38:16;;;;;;;5.70;3.35;;;21.50;99.90;;;;;;5022054;28;20377;-73
2021/06/01 09:40:43;;;;;;;5.18;3.70;;;21.40;99.90;;;;;;5038414;28;20066;-74
2021/06/01 09:43:14;;;;;;;6.57;4.25;;;21.30;99.90;;;;;;5039467;28;20590;-74
2021/06/01 09:45:44;;;;;;;6.22;3.22;;;21.10;99.90;;;;;;5039229;28;20480;-73
2021/06/01 09:48:12;;;;;;;5.35;3.35;;;21.30;99.90;;;;;;5038667;28;20033;-73
2021/06/01 09:55:49;;;;;;;5.05;3.08;;;21.90;99.90;;;;;;5039199;28;20036;-73
2021/06/01 09:58:28;;;;;;;6.65;3.75;;;22.00;99.90;;;;;;5037633;28;20064;-74
2021/06/01 10:00:55;;;;;;;5.40;3.60;;;22.20;99.90;;;;;;5021698;28;20048;-74
2021/06/01 10:03:25;;;;;;;5.30;3.65;;;22.20;99.90;;;;;;5036795;28;20708;-74
2021/06/01 10:05:56;;;;;;;14.27;4.78;;;22.50;99.90;;;;;;5000718;28;20045;-74
2021/06/01 10:08:29;;;;;;;5.60;3.67;;;22.80;99.90;;;;;;5038360;28;20086;-74
2021/06/01 10:10:57;;;;;;;5.45;3.53;;;22.70;99.90;;;;;;5004209;28;20021;-74
2021/06/01 10:13:36;;;;;;;4.97;3.30;;;22.50;99.90;;;;;;5039077;28;20025;-75
2021/06/01 10:16:11;;;;;;;9.18;3.80;;;22.80;99.90;;;;;;5038827;28;20029;-75
2021/06/01 10:18:42;;;;;;;5.80;4.03;;;23.10;99.90;;;;;;5039578;28;20413;-75
2021/06/01 10:21:13;;;;;;;9.05;4.70;;;22.80;99.90;;;;;;5038830;28;20082;-75
2021/06/01 10:23:44;;;;;;;7.75;4.70;;;22.60;99.90;;;;;;5038151;28;20048;-74
2021/06/01 10:26:13;;;;;;;5.28;3.92;;;22.50;99.90;;;;;;5017364;28;20500;-75
2021/06/01 10:28:45;;;;;;;5.38;3.97;;;22.50;99.90;;;;;;5035111;28;20483;-75
2021/06/01 10:31:14;;;;;;;6.18;4.03;;;22.40;99.90;;;;;;5038691;28;20037;-75
2021/06/01 10:33:46;;;;;;;5.28;4.20;;;22.40;99.90;;;;;;5038687;28;20088;-75
2021/06/01 10:50:25;;;;;;;12.57;5.25;;;22.50;99.90;;;;;;5020161;28;20021;-75
2021/06/01 10:53:16;;;;;;;7.22;5.05;;;22.60;99.90;;;;;;5037585;28;20025;-74
2021/06/01 10:55:55;;;;;;;6.65;5.03;;;22.50;99.90;;;;;;5037294;28;20083;-74
2021/06/01 10:58:26;;;;;;;10.07;5.40;;;22.50;99.90;;;;;;5037961;28;20017;-74
2021/06/01 11:04:03;;;;;;;9.02;5.00;;;22.50;99.90;;;;;;5036975;28;20506;-74
2021/06/01 11:06:54;;;;;;;9.35;5.55;;;22.50;99.90;;;;;;5037864;28;20140;-74
2021/06/01 11:09:32;;;;;;;9.27;4.95;;;22.40;99.90;;;;;;5036789;28;20022;-74
2021/06/01 11:12:01;;;;;;;6.80;4.43;;;21.90;99.90;;;;;;5037705;28;20036;-75
2021/06/01 11:14:32;;;;;;;11.32;5.45;;;22.10;99.90;;;;;;5037596;28;20036;-74
2021/06/01 11:17:00;;;;;;;7.22;4.30;;;22.20;99.90;;;;;;5035904;28;20041;-74
2021/06/01 11:20:06;;;;;;;8.18;5.07;;;22.20;99.90;;;;;;5036685;28;20045;-75
2021/06/01 11:22:42;;;;;;;9.73;6.10;;;21.90;99.90;;;;;;5037741;28;20136;-75
2021/06/01 11:33:41;;;;;;;8.82;5.45;;;21.70;99.90;;;;;;5036881;28;20108;-74
2021/06/01 11:36:11;;;;;;;7.22;4.85;;;21.80;99.90;;;;;;5036799;28;20421;-74
2021/06/01 11:38:55;;;;;;;6.57;4.07;;;21.80;99.90;;;;;;5035545;28;20085;-74
2021/06/01 11:44:14;;;;;;;8.15;4.00;;;21.60;99.90;;;;;;5037224;28;20496;-75
2021/06/01 11:46:56;;;;;;;6.22;3.47;;;21.60;99.90;;;;;;5036685;28;20216;-74
2021/06/01 11:52:08;;;;;;;7.57;4.03;;;21.30;99.90;;;;;;5034921;28;20087;-74
2021/06/01 11:54:34;;;;;;;5.60;3.70;;;21.50;99.90;;;;;;5037445;28;20036;-74
2021/06/01 11:57:16;;;;;;;4.90;2.95;;;21.70;99.90;;;;;;5037067;28;20041;-74
2021/06/01 12:13:43;;;;;;;6.00;3.83;;;22.00;99.90;;;;;;5037238;28;20065;-75
2021/06/01 12:19:06;;;;;;;7.18;3.90;;;21.70;99.90;;;;;;5035643;28;20095;-74
2021/06/01 12:21:36;;;;;;;7.47;3.70;;;21.40;99.90;;;;;;5037000;28;20043;-74
2021/06/01 12:24:18;;;;;;;5.63;3.30;;;21.20;99.90;;;;;;5036349;28;20041;-73
2021/06/01 12:26:59;;;;;;;6.70;3.70;;;21.20;99.90;;;;;;5036678;28;20063;-74
2021/06/01 12:35:36;;;;;;;6.95;3.67;;;21.30;99.90;;;;;;5036556;28;20505;-74
2021/06/01 12:43:43;;;;;;;7.00;3.80;;;21.30;99.90;;;;;;5035971;28;20114;-74
2021/06/01 13:46:53;;;;;;;7.00;3.30;;;20.20;99.90;;;;;;5039641;28;20503;-73
2021/06/01 13:49:25;;;;;;;5.28;3.50;;;20.20;99.90;;;;;;5039135;28;20039;-73
2021/06/01 13:57:21;;;;;;;9.65;3.60;;;20.20;99.90;;;;;;5038950;28;20025;-73
2021/06/01 13:59:56;;;;;;;5.65;3.00;;;20.30;99.90;;;;;;5040358;28;20052;-73
2021/06/01 15:54:13;;;;;;;11.52;5.22;;;21.10;99.90;;;;;;5033711;28;20032;-72
2021/06/01 16:21:58;;;;;;;9.57;5.45;;;20.50;99.90;;;;;;5027696;28;20151;-72
2021/06/01 16:30:12;;;;;;;13.13;5.85;;;20.40;99.90;;;;;;5030734;28;20027;-65
2021/06/01 17:05:33;;;;;;;14.80;8.80;;;19.60;99.90;;;;;;5032689;28;20302;-65
2021/06/01 17:08:38;;;;;;;14.75;8.77;;;19.60;99.90;;;;;;5027135;28;21524;-64
2021/06/01 17:13:54;;;;;;;15.65;8.38;;;19.50;99.90;;;;;;5029188;28;20139;-64
2021/06/01 17:34:58;;;;;;;19.58;10.57;;;19.00;99.90;;;;;;5027011;28;20033;-65
2021/06/01 17:37:26;;;;;;;20.98;10.15;;;19.00;99.90;;;;;;5028167;28;20037;-64
2021/06/01 17:39:53;;;;;;;22.58;10.63;;;18.80;99.90;;;;;;5028980;28;20021;-64
2021/06/01 17:42:21;;;;;;;16.60;9.27;;;18.80;99.90;;;;;;5029587;28;20502;-64
2021/06/01 17:44:49;;;;;;;19.05;9.70;;;18.90;99.90;;;;;;5029805;28;20035;-64
2021/06/01 17:47:20;;;;;;;16.70;9.80;;;18.90;99.90;;;;;;5030659;28;20095;-64
2021/06/01 17:49:51;;;;;;;17.42;10.70;;;18.80;99.90;;;;;;5030608;28;20033;-64
2021/06/01 17:52:29;;;;;;;19.00;11.18;;;18.70;99.90;;;;;;5029854;28;20175;-64
2021/06/01 17:54:57;;;;;;;20.00;11.52;;;18.70;99.90;;;;;;5033621;28;20496;-64
2021/06/01 17:57:25;;;;;;;16.50;10.88;;;18.70;99.90;;;;;;5017228;28;20440;-64
2021/06/01 17:59:52;;;;;;;18.98;11.18;;;18.70;99.90;;;;;;5033839;28;20380;-64
2021/06/01 18:02:18;;;;;;;16.00;10.75;;;18.70;99.90;;;;;;5028601;28;20028;-64
2021/06/01 18:04:46;;;;;;;19.42;12.35;;;18.60;99.90;;;;;;5033106;28;20037;-64
2021/06/01 18:07:27;;;;;;;18.17;11.43;;;18.60;99.90;;;;;;5033399;28;20074;-64
2021/06/01 19:24:24;;;;;;;16.40;11.05;;;16.70;99.90;;;;;;5033693;28;20492;-64
2021/06/01 19:51:13;;;;;;;15.35;10.57;;;16.10;99.90;;;;;;5034675;28;20168;-63
2021/06/01 19:53:43;;;;;;;18.00;12.30;;;16.10;99.90;;;;;;5031845;28;20571;-64
2021/06/01 19:56:09;;;;;;;17.67;11.82;;;16.00;99.90;;;;;;5032428;28;20032;-63
2021/06/01 19:58:36;;;;;;;17.05;11.77;;;15.90;99.90;;;;;;5033541;28;20451;-64
2021/06/01 20:01:04;;;;;;;17.02;11.32;;;15.90;99.90;;;;;;5030433;28;20081;-63
2021/06/01 20:03:31;;;;;;;22.70;11.10;;;15.80;99.90;;;;;;5031765;28;20041;-63
2021/06/01 20:05:58;;;;;;;14.90;10.98;;;15.80;99.90;;;;;;5032499;28;20048;-63
2021/06/01 20:08:24;;;;;;;16.70;11.65;;;15.70;99.90;;;;;;5032243;28;20070;-63
2021/06/01 20:10:54;;;;;;;16.73;12.32;;;15.70;99.90;;;;;;5033371;28;20045;-63
2021/06/01 20:13:20;;;;;;;17.20;12.23;;;15.60;99.90;;;;;;5035480;28;20367;-63
2021/06/01 20:15:46;;;;;;;16.27;11.75;;;15.40;99.90;;;;;;5029735;28;20020;-63
2021/06/01 20:18:12;;;;;;;18.90;11.10;;;15.30;99.90;;;;;;5034511;28;20031;-63
2021/06/01 20:20:42;;;;;;;15.93;10.80;;;15.20;99.90;;;;;;5032679;28;20032;-63
2021/06/01 20:23:10;;;;;;;16.35;11.65;;;15.10;99.90;;;;;;5033630;28;20073;-63
2021/06/01 20:25:36;;;;;;;16.02;11.77;;;15.00;99.90;;;;;;5034395;28;20029;-63